Time;durP1;ratioP1;P1;durP2;ratioP2;P2;SDS_P1;SDS_P2;PMS_P1;PMS_P2;Temp;Humidity;BMP_temperature;BMP_pressure;BME280_temperature;BME280_humidity;BME280_pressure;Samples;Min_cycle;Max_cycle;Signal;HPM_P1;HPM_P2
2023/07/19 00:02:02;;;;;;;7.65;1.55;;;;;;;;;;5011349;28;20104;-69
2023/07/19 00:04:28;;;;;;;4.88;1.38;;;;;;;;;;5011515;28;20033;-69
2023/07/19 00:06:55;;;;;;;5.57;1.52;;;;;;;;;;5011338;28;20030;-69
2023/07/19 00:09:21;;;;;;;5.00;1.67;;;;;;;;;;5010981;28;20751;-70
2023/07/19 00:11:47;;;;;;;5.70;1.60;;;;;;;;;;5011174;28;20076;-70
2023/07/19 00:14:13;;;;;;;5.72;2.00;;;;;;;;;;5010704;28;20490;-70
2023/07/19 00:16:39;;;;;;;3.42;1.17;;;;;;;;;;5011578;28;20030;-70
2023/07/19 00:19:05;;;;;;;3.85;1.50;;;;;;;;;;5011159;28;20169;-70
2023/07/19 00:21:31;;;;;;;4.43;1.60;;;;;;;;;;5010991;28;20033;-71
2023/07/19 00:23:58;;;;;;;5.40;1.60;;;;;;;;;;5011060;28;20025;-71
2023/07/19 00:26:24;;;;;;;4.15;2.15;;;;;;;;;;5011382;28;20076;-71
2023/07/19 00:28:50;;;;;;;6.07;2.15;;;;;;;;;;5010638;28;20054;-72
2023/07/19 00:31:16;;;;;;;6.65;1.60;;;;;;;;;;5011017;28;20131;-71
2023/07/19 00:33:42;;;;;;;5.53;1.67;;;;;;;;;;5011250;28;20433;-70
2023/07/19 00:36:08;;;;;;;3.25;1.33;;;;;;;;;;5010394;28;20077;-71
2023/07/19 00:38:35;;;;;;;6.00;1.77;;;;;;;;;;5010951;28;20022;-71
2023/07/19 00:41:01;;;;;;;4.30;1.38;;;;;;;;;;5010226;28;20030;-71
2023/07/19 00:43:27;;;;;;;4.15;1.77;;;;;;;;;;5010486;28;20476;-71
2023/07/19 00:45:54;;;;;;;3.17;1.38;;;;;;;;;;5010712;28;20018;-71
2023/07/19 00:48:21;;;;;;;3.42;1.38;;;;;;;;;;5010085;28;20396;-71
2023/07/19 00:50:48;;;;;;;4.22;1.60;;;;;;;;;;5010123;28;20018;-71
2023/07/19 00:53:14;;;;;;;5.65;2.08;;;;;;;;;;5011013;28;20033;-71
2023/07/19 00:55:41;;;;;;;4.30;1.88;;;;;;;;;;5010143;28;20112;-71
2023/07/19 00:58:08;;;;;;;5.35;1.60;;;;;;;;;;4992474;28;20065;-71
2023/07/19 01:00:34;;;;;;;4.90;2.13;;;;;;;;;;5010230;28;20049;-71
2023/07/19 01:03:00;;;;;;;6.05;1.73;;;;;;;;;;5010358;28;20026;-71
2023/07/19 01:05:27;;;;;;;5.53;2.03;;;;;;;;;;5010351;28;20385;-71
2023/07/19 01:07:53;;;;;;;6.28;1.77;;;;;;;;;;5010331;28;20160;-70
2023/07/19 01:10:20;;;;;;;4.82;1.92;;;;;;;;;;5009866;28;20044;-70
2023/07/19 01:13:01;;;;;;;5.93;1.58;;;;;;;;;;5010029;28;20038;-71
2023/07/19 01:15:28;;;;;;;3.88;1.45;;;;;;;;;;5010271;28;20034;-70
2023/07/19 01:17:54;;;;;;;4.68;1.70;;;;;;;;;;4991829;28;20141;-70
2023/07/19 01:20:20;;;;;;;3.97;1.75;;;;;;;;;;5010080;28;20113;-71
2023/07/19 01:22:46;;;;;;;4.45;2.10;;;;;;;;;;5010268;28;20101;-71
2023/07/19 01:25:12;;;;;;;4.95;1.60;;;;;;;;;;5009633;28;20084;-71
2023/07/19 01:27:38;;;;;;;5.63;1.98;;;;;;;;;;5009976;28;20022;-71
2023/07/19 01:30:05;;;;;;;4.50;1.65;;;;;;;;;;5009225;28;20026;-71
2023/07/19 01:32:31;;;;;;;6.45;1.98;;;;;;;;;;5009647;28;20026;-70
2023/07/19 01:34:57;;;;;;;4.65;1.45;;;;;;;;;;5009528;28;20029;-70
2023/07/19 01:37:23;;;;;;;6.63;2.10;;;;;;;;;;5009712;28;20025;-69
2023/07/19 01:39:49;;;;;;;4.55;1.73;;;;;;;;;;5009199;28;20029;-70
2023/07/19 01:42:16;;;;;;;5.85;2.10;;;;;;;;;;4991352;28;20084;-72
2023/07/19 01:44:43;;;;;;;5.88;1.60;;;;;;;;;;5009571;28;20073;-69
2023/07/19 01:47:09;;;;;;;6.82;1.92;;;;;;;;;;5009543;28;20036;-69
2023/07/19 01:49:35;;;;;;;5.70;1.80;;;;;;;;;;5009543;28;20026;-70
2023/07/19 01:52:01;;;;;;;8.43;1.80;;;;;;;;;;5008896;28;20084;-70
2023/07/19 01:54:27;;;;;;;3.75;1.83;;;;;;;;;;5009053;28;20480;-69
2023/07/19 01:56:53;;;;;;;5.47;1.85;;;;;;;;;;5009382;28;20041;-70
2023/07/19 01:59:19;;;;;;;7.85;2.20;;;;;;;;;;5009001;28;20022;-70
2023/07/19 02:01:45;;;;;;;2.75;1.40;;;;;;;;;;5009643;28;20091;-70
2023/07/19 02:04:11;;;;;;;5.68;1.80;;;;;;;;;;5009270;28;20100;-70
2023/07/19 02:06:37;;;;;;;5.22;2.13;;;;;;;;;;5009218;28;20174;-71
2023/07/19 02:09:03;;;;;;;4.55;1.85;;;;;;;;;;5009501;28;20109;-70
2023/07/19 02:11:29;;;;;;;5.20;2.35;;;;;;;;;;5008776;28;20037;-71
2023/07/19 02:13:55;;;;;;;6.30;2.58;;;;;;;;;;5009413;28;20033;-70
2023/07/19 02:16:21;;;;;;;6.35;2.55;;;;;;;;;;5009023;28;20480;-70
2023/07/19 02:18:47;;;;;;;4.45;2.13;;;;;;;;;;5008903;28;20038;-71
2023/07/19 02:21:16;;;;;;;8.38;2.80;;;;;;;;;;5008804;28;20033;-70
2023/07/19 02:23:42;;;;;;;5.22;2.15;;;;;;;;;;5008928;28;20104;-70
2023/07/19 02:26:08;;;;;;;5.85;2.45;;;;;;;;;;5009483;28;20030;-70
2023/07/19 02:28:34;;;;;;;6.78;2.00;;;;;;;;;;5009219;28;20030;-71
2023/07/19 02:31:00;;;;;;;7.15;2.30;;;;;;;;;;5008654;28;20034;-70
2023/07/19 02:33:26;;;;;;;15.38;2.85;;;;;;;;;;5008995;28;20062;-70
2023/07/19 02:35:54;;;;;;;5.40;2.00;;;;;;;;;;5008618;28;20049;-69
2023/07/19 02:38:20;;;;;;;10.88;3.10;;;;;;;;;;5009167;28;20391;-70
2023/07/19 02:40:46;;;;;;;6.28;2.17;;;;;;;;;;5008668;28;20030;-70
2023/07/19 02:43:12;;;;;;;6.60;2.47;;;;;;;;;;5008907;28;20088;-70
2023/07/19 02:45:38;;;;;;;7.25;2.30;;;;;;;;;;5008279;28;20120;-69
2023/07/19 02:48:04;;;;;;;7.32;2.50;;;;;;;;;;5008976;28;20022;-69
2023/07/19 02:50:30;;;;;;;6.25;3.10;;;;;;;;;;5008477;28;20022;-69
2023/07/19 02:52:57;;;;;;;7.22;2.72;;;;;;;;;;5008135;28;20084;-70
2023/07/19 02:55:23;;;;;;;10.27;3.22;;;;;;;;;;5008482;28;20069;-70
2023/07/19 02:57:49;;;;;;;6.57;2.47;;;;;;;;;;5008651;28;20480;-70
2023/07/19 03:00:15;;;;;;;6.65;2.30;;;;;;;;;;5008623;28;20030;-70
2023/07/19 03:02:41;;;;;;;5.50;2.60;;;;;;;;;;5008818;28;20400;-70
2023/07/19 03:05:07;;;;;;;7.28;2.47;;;;;;;;;;5008132;28;20440;-70
2023/07/19 03:07:33;;;;;;;7.15;2.65;;;;;;;;;;5008853;28;20030;-70
2023/07/19 03:10:00;;;;;;;6.32;2.33;;;;;;;;;;5008641;28;20030;-69
2023/07/19 03:12:26;;;;;;;4.35;2.33;;;;;;;;;;5008348;28;20403;-70
2023/07/19 03:14:52;;;;;;;4.15;2.20;;;;;;;;;;5008423;28;20038;-70
2023/07/19 03:17:18;;;;;;;6.13;2.47;;;;;;;;;;5008589;28;20037;-70
2023/07/19 03:19:47;;;;;;;4.53;2.50;;;;;;;;;;5012678;28;20080;-70
2023/07/19 03:22:13;;;;;;;4.57;2.35;;;;;;;;;;5011958;28;20040;-70
2023/07/19 03:24:39;;;;;;;9.75;2.60;;;;;;;;;;5011946;28;20057;-70
2023/07/19 03:27:06;;;;;;;6.03;2.15;;;;;;;;;;5011870;28;20120;-70
2023/07/19 03:29:32;;;;;;;5.55;2.20;;;;;;;;;;5012078;28;20026;-70
2023/07/19 03:31:58;;;;;;;5.80;2.28;;;;;;;;;;5012388;28;20022;-70
2023/07/19 03:34:24;;;;;;;4.97;2.20;;;;;;;;;;5011467;28;20033;-70
2023/07/19 03:36:50;;;;;;;6.57;2.03;;;;;;;;;;5011913;28;20018;-70
2023/07/19 03:39:16;;;;;;;6.25;1.95;;;;;;;;;;5011814;28;20162;-70
2023/07/19 03:41:42;;;;;;;6.75;2.35;;;;;;;;;;5012447;28;20040;-70
2023/07/19 03:44:08;;;;;;;5.85;1.83;;;;;;;;;;5011897;28;20050;-70
2023/07/19 03:46:34;;;;;;;6.22;2.35;;;;;;;;;;5011614;28;20097;-70
2023/07/19 03:49:00;;;;;;;6.57;2.38;;;;;;;;;;5011578;28;20021;-70
2023/07/19 03:51:27;;;;;;;7.07;2.42;;;;;;;;;;5011491;28;20468;-70
2023/07/19 03:53:53;;;;;;;6.65;2.10;;;;;;;;;;5011685;28;20101;-70
2023/07/19 03:56:19;;;;;;;8.15;2.60;;;;;;;;;;5011683;28;20468;-70
2023/07/19 03:58:48;;;;;;;6.88;2.67;;;;;;;;;;5011521;28;20069;-70
2023/07/19 04:01:14;;;;;;;7.90;2.70;;;;;;;;;;5011457;28;20113;-70
2023/07/19 04:03:41;;;;;;;8.80;2.30;;;;;;;;;;5011475;28;20026;-70
2023/07/19 04:06:07;;;;;;;5.72;2.50;;;;;;;;;;5011119;28;20033;-70
2023/07/19 04:08:34;;;;;;;6.28;2.40;;;;;;;;;;5011125;28;20064;-71
2023/07/19 04:11:00;;;;;;;6.85;2.45;;;;;;;;;;5011274;28;20121;-70
2023/07/19 04:13:27;;;;;;;5.03;1.95;;;;;;;;;;5010948;28;20421;-71
2023/07/19 04:15:53;;;;;;;7.47;2.08;;;;;;;;;;4993405;28;20034;-71
2023/07/19 04:18:19;;;;;;;8.05;2.30;;;;;;;;;;5010951;28;20018;-71
2023/07/19 04:20:45;;;;;;;7.05;2.25;;;;;;;;;;5010539;28;20029;-70
2023/07/19 04:23:13;;;;;;;5.75;2.33;;;;;;;;;;5010879;28;20026;-69
2023/07/19 04:25:39;;;;;;;8.38;3.60;;;;;;;;;;5010747;28;20025;-70
2023/07/19 04:28:05;;;;;;;8.80;2.22;;;;;;;;;;5010352;28;20652;-69
2023/07/19 04:30:31;;;;;;;8.35;2.72;;;;;;;;;;5009516;28;20040;-70
2023/07/19 04:32:57;;;;;;;5.65;2.03;;;;;;;;;;5010743;28;20032;-70
2023/07/19 04:35:23;;;;;;;6.13;2.35;;;;;;;;;;5011023;28;20037;-69
2023/07/19 04:37:49;;;;;;;8.45;2.72;;;;;;;;;;5010756;28;20030;-68
2023/07/19 04:40:16;;;;;;;9.52;2.75;;;;;;;;;;5010275;28;20034;-69
2023/07/19 04:42:44;;;;;;;9.55;2.28;;;;;;;;;;5010557;28;20105;-70
2023/07/19 04:45:11;;;;;;;8.35;3.03;;;;;;;;;;5010086;28;20080;-70
2023/07/19 04:47:37;;;;;;;7.03;2.63;;;;;;;;;;5010937;28;20073;-70
2023/07/19 04:50:07;;;;;;;7.18;2.88;;;;;;;;;;5009974;28;20112;-70
2023/07/19 04:52:33;;;;;;;7.82;2.88;;;;;;;;;;5010340;28;20118;-69
2023/07/19 04:54:59;;;;;;;8.13;3.03;;;;;;;;;;5010447;28;20026;-70
2023/07/19 04:57:25;;;;;;;6.10;2.63;;;;;;;;;;5010392;28;20126;-70
2023/07/19 04:59:51;;;;;;;9.35;3.08;;;;;;;;;;5009889;28;20492;-70
2023/07/19 05:02:17;;;;;;;9.00;2.63;;;;;;;;;;5009846;28;20491;-69
2023/07/19 05:04:43;;;;;;;6.32;2.38;;;;;;;;;;5010078;28;20029;-70
2023/07/19 05:07:09;;;;;;;6.78;3.22;;;;;;;;;;5010155;28;20849;-70
2023/07/19 05:09:35;;;;;;;9.45;3.30;;;;;;;;;;5010281;28;20034;-71
2023/07/19 05:12:02;;;;;;;6.82;3.53;;;;;;;;;;5009909;28;20072;-71
2023/07/19 05:14:28;;;;;;;8.70;3.33;;;;;;;;;;5009776;28;20022;-71
2023/07/19 05:16:54;;;;;;;9.55;4.18;;;;;;;;;;5009268;28;20030;-71
2023/07/19 05:19:20;;;;;;;8.93;4.05;;;;;;;;;;5009777;28;20026;-71
2023/07/19 05:21:46;;;;;;;7.57;3.97;;;;;;;;;;4992360;28;20468;-70
2023/07/19 05:24:12;;;;;;;8.20;3.80;;;;;;;;;;5009947;28;20022;-71
2023/07/19 05:26:39;;;;;;;8.48;4.07;;;;;;;;;;5009285;28;20060;-71
2023/07/19 05:29:09;;;;;;;8.40;3.55;;;;;;;;;;5009679;28;20026;-71
2023/07/19 05:31:35;;;;;;;10.10;4.63;;;;;;;;;;5010358;28;20086;-71
2023/07/19 05:34:01;;;;;;;7.95;3.53;;;;;;;;;;5009539;28;20029;-71
2023/07/19 05:36:27;;;;;;;10.50;4.53;;;;;;;;;;5009227;28;20037;-70
2023/07/19 05:38:54;;;;;;;7.25;4.05;;;;;;;;;;5009589;28;20081;-70
2023/07/19 05:41:20;;;;;;;11.02;4.18;;;;;;;;;;4991214;28;20026;-71
2023/07/19 05:43:46;;;;;;;8.57;4.70;;;;;;;;;;5009403;28;20076;-71
2023/07/19 05:46:12;;;;;;;14.73;4.72;;;;;;;;;;5009154;28;20074;-70
2023/07/19 05:48:39;;;;;;;8.25;4.53;;;;;;;;;;5009307;28;20056;-71
2023/07/19 05:51:06;;;;;;;9.95;4.45;;;;;;;;;;5009225;28;20025;-71
2023/07/19 05:53:32;;;;;;;8.10;4.07;;;;;;;;;;5009832;28;20030;-70
2023/07/19 05:55:58;;;;;;;8.43;4.30;;;;;;;;;;5008759;28;20045;-70
2023/07/19 05:58:24;;;;;;;6.45;4.03;;;;;;;;;;5009615;28;20028;-71
2023/07/19 06:00:50;;;;;;;10.70;4.70;;;;;;;;;;5009674;28;20018;-70
2023/07/19 06:03:16;;;;;;;9.70;4.30;;;;;;;;;;5009537;28;20109;-71
2023/07/19 06:05:45;;;;;;;7.85;3.35;;;;;;;;;;5009416;28;20026;-71
2023/07/19 06:08:11;;;;;;;8.15;4.00;;;;;;;;;;5009444;28;20057;-71
2023/07/19 06:10:38;;;;;;;12.15;4.85;;;;;;;;;;4991405;28;20111;-71
2023/07/19 06:13:04;;;;;;;10.23;4.43;;;;;;;;;;5009355;28;20087;-73
2023/07/19 06:15:32;;;;;;;12.82;4.40;;;;;;;;;;5009096;28;20484;-70
2023/07/19 06:17:58;;;;;;;7.65;4.45;;;;;;;;;;5008625;28;20033;-71
2023/07/19 06:20:24;;;;;;;9.40;4.75;;;;;;;;;;5008498;28;20523;-71
2023/07/19 06:22:50;;;;;;;10.20;3.55;;;;;;;;;;5009161;28;20034;-71
2023/07/19 06:25:16;;;;;;;11.25;4.32;;;;;;;;;;5008673;28;20049;-71
2023/07/19 06:27:42;;;;;;;9.57;4.78;;;;;;;;;;4990998;28;20026;-70
2023/07/19 06:30:09;;;;;;;9.85;4.20;;;;;;;;;;5008550;28;20030;-71
2023/07/19 06:32:36;;;;;;;11.27;3.80;;;;;;;;;;5008769;28;20634;-72
2023/07/19 06:35:02;;;;;;;8.27;3.88;;;;;;;;;;5006906;28;20030;-71
2023/07/19 06:37:28;;;;;;;11.88;4.30;;;;;;;;;;5007423;28;20053;-71
2023/07/19 06:39:56;;;;;;;9.93;3.63;;;;;;;;;;5007223;28;20025;-71
2023/07/19 06:42:22;;;;;;;8.95;3.70;;;;;;;;;;5007998;28;20037;-70
2023/07/19 06:44:48;;;;;;;8.45;3.70;;;;;;;;;;5006586;28;20104;-70
2023/07/19 06:47:14;;;;;;;9.23;4.60;;;;;;;;;;5007972;28;20032;-70
2023/07/19 06:49:41;;;;;;;8.68;3.33;;;;;;;;;;5008475;28;20018;-70
2023/07/19 06:52:08;;;;;;;10.10;3.63;;;;;;;;;;5008655;28;20030;-70
2023/07/19 06:54:34;;;;;;;6.38;2.20;;;;;;;;;;5012448;28;20425;-70
2023/07/19 06:57:00;;;;;;;7.40;3.15;;;;;;;;;;5011617;28;20029;-70
2023/07/19 06:59:28;;;;;;;7.57;2.58;;;;;;;;;;5011947;28;20026;-70
2023/07/19 07:01:54;;;;;;;6.90;2.67;;;;;;;;;;5012332;28;20029;-72
2023/07/19 07:04:20;;;;;;;5.75;2.13;;;;;;;;;;5012562;28;20041;-73
2023/07/19 07:06:46;;;;;;;6.80;2.50;;;;;;;;;;5012370;28;20052;-72
2023/07/19 07:09:14;;;;;;;7.28;2.33;;;;;;;;;;5011472;28;20084;-72
2023/07/19 07:11:40;;;;;;;5.80;1.98;;;;;;;;;;5011934;28;20026;-73
2023/07/19 07:14:06;;;;;;;9.80;2.80;;;;;;;;;;5012055;28;20389;-72
2023/07/19 07:16:32;;;;;;;8.30;3.00;;;;;;;;;;5011838;28;20511;-72
2023/07/19 07:19:00;;;;;;;6.20;2.00;;;;;;;;;;5011543;28;20022;-72
2023/07/19 07:21:26;;;;;;;9.27;2.15;;;;;;;;;;5011790;28;20136;-72
2023/07/19 07:23:52;;;;;;;8.68;2.33;;;;;;;;;;5012067;28;20683;-72
2023/07/19 07:26:18;;;;;;;10.77;3.47;;;;;;;;;;5011736;28;20103;-72
2023/07/19 07:28:45;;;;;;;9.68;4.05;;;;;;;;;;5011716;28;20072;-72
2023/07/19 07:31:11;;;;;;;7.80;2.80;;;;;;;;;;5011756;28;20022;-71
2023/07/19 07:33:38;;;;;;;8.93;4.53;;;;;;;;;;5011654;28;20030;-72
2023/07/19 07:36:04;;;;;;;7.22;1.83;;;;;;;;;;5011186;28;20027;-70
2023/07/19 07:38:30;;;;;;;8.15;4.78;;;;;;;;;;5011591;28;20030;-71
2023/07/19 07:41:05;;;;;;;5.38;2.05;;;;;;;;;;5010900;28;20087;-72
2023/07/19 07:43:31;;;;;;;4.95;1.38;;;;;;;;;;5011582;28;20021;-72
2023/07/19 07:45:58;;;;;;;7.20;1.52;;;;;;;;;;4993432;28;20030;-73
2023/07/19 07:48:24;;;;;;;5.28;1.67;;;;;;;;;;5011859;28;20498;-72
2023/07/19 07:50:51;;;;;;;6.25;2.25;;;;;;;;;;5011629;28;20026;-72
2023/07/19 07:53:18;;;;;;;4.88;1.88;;;;;;;;;;5011563;28;20018;-72
2023/07/19 07:55:45;;;;;;;7.10;2.20;;;;;;;;;;5011354;28;20036;-72
2023/07/19 07:58:11;;;;;;;6.63;2.83;;;;;;;;;;5011431;28;20034;-73
2023/07/19 08:00:37;;;;;;;7.32;3.47;;;;;;;;;;5011981;28;20033;-71
2023/07/19 08:03:03;;;;;;;8.38;3.08;;;;;;;;;;5011499;28;20025;-73
2023/07/19 08:05:29;;;;;;;10.18;4.22;;;;;;;;;;5010812;28;20045;-71
2023/07/19 08:07:55;;;;;;;8.07;3.58;;;;;;;;;;5011410;28;20018;-73
2023/07/19 08:10:21;;;;;;;9.13;2.58;;;;;;;;;;5011390;28;20041;-72
2023/07/19 08:12:47;;;;;;;7.93;1.85;;;;;;;;;;5011331;28;20090;-72
2023/07/19 08:15:14;;;;;;;6.75;3.22;;;;;;;;;;5010819;28;20092;-71
2023/07/19 08:17:40;;;;;;;4.68;1.45;;;;;;;;;;5011438;28;20192;-74
2023/07/19 08:20:09;;;;;;;6.13;2.20;;;;;;;;;;5011136;28;20527;-74
2023/07/19 08:22:36;;;;;;;8.40;2.72;;;;;;;;;;5011779;28;20332;-73
2023/07/19 08:25:02;;;;;;;11.40;3.67;;;;;;;;;;5011373;28;20584;-73
2023/07/19 08:27:28;;;;;;;7.63;2.50;;;;;;;;;;5010492;28;20049;-74
2023/07/19 08:29:54;;;;;;;7.50;2.22;;;;;;;;;;5010825;28;20429;-74
2023/07/19 08:32:20;;;;;;;12.77;3.80;;;;;;;;;;4993466;28;20057;-75
2023/07/19 08:34:46;;;;;;;8.75;3.42;;;;;;;;;;5010159;28;20467;-73
2023/07/19 08:37:12;;;;;;;12.48;3.40;;;;;;;;;;4992916;28;20033;-74
2023/07/19 08:39:38;;;;;;;5.53;2.15;;;;;;;;;;5010944;28;20033;-74
2023/07/19 08:42:05;;;;;;;8.73;3.10;;;;;;;;;;5010904;28;20030;-74
2023/07/19 08:44:31;;;;;;;6.85;2.35;;;;;;;;;;5010278;28;20058;-75
2023/07/19 08:46:58;;;;;;;4.68;1.98;;;;;;;;;;5009897;28;20033;-75
2023/07/19 08:49:24;;;;;;;5.10;2.05;;;;;;;;;;4992608;28;20376;-76
2023/07/19 08:51:50;;;;;;;7.55;2.35;;;;;;;;;;5010866;28;20443;-75
2023/07/19 08:54:17;;;;;;;9.07;3.17;;;;;;;;;;4993505;28;20042;-75
2023/07/19 08:56:43;;;;;;;5.43;2.00;;;;;;;;;;5010779;28;20121;-74
2023/07/19 08:59:10;;;;;;;9.32;3.10;;;;;;;;;;5011456;28;20341;-75
2023/07/19 09:01:36;;;;;;;7.35;2.08;;;;;;;;;;4992972;28;20077;-73
2023/07/19 09:04:09;;;;;;;5.65;2.00;;;;;;;;;;4992487;28;20030;-74
2023/07/19 09:06:35;;;;;;;8.70;3.65;;;;;;;;;;5010533;28;20098;-74
2023/07/19 09:09:01;;;;;;;6.20;1.80;;;;;;;;;;5010435;28;20474;-74
2023/07/19 09:11:30;;;;;;;8.10;2.85;;;;;;;;;;5010333;28;20434;-73
2023/07/19 09:13:58;;;;;;;6.45;2.83;;;;;;;;;;5010342;28;20034;-74
2023/07/19 09:16:28;;;;;;;9.25;2.75;;;;;;;;;;5008905;28;20121;-73
2023/07/19 09:18:55;;;;;;;7.68;2.58;;;;;;;;;;5010259;28;20029;-73
2023/07/19 09:21:30;;;;;;;7.43;2.08;;;;;;;;;;5009734;28;20022;-75
2023/07/19 09:23:57;;;;;;;7.88;2.30;;;;;;;;;;5010138;28;20022;-75
2023/07/19 09:26:23;;;;;;;7.85;3.15;;;;;;;;;;5009359;28;20026;-74
2023/07/19 09:28:51;;;;;;;6.25;2.47;;;;;;;;;;5009334;28;20018;-73
2023/07/19 09:31:17;;;;;;;5.40;1.80;;;;;;;;;;5009642;28;20026;-73
2023/07/19 09:33:43;;;;;;;5.15;1.60;;;;;;;;;;5009718;28;20055;-73
2023/07/19 09:36:09;;;;;;;6.03;1.90;;;;;;;;;;5009085;28;20104;-73
2023/07/19 09:38:35;;;;;;;4.07;1.63;;;;;;;;;;5009510;28;20022;-74
2023/07/19 09:41:02;;;;;;;5.88;1.58;;;;;;;;;;5008284;28;20037;-73
2023/07/19 09:43:29;;;;;;;5.78;1.88;;;;;;;;;;5008683;28;20025;-73
2023/07/19 09:45:56;;;;;;;6.43;2.13;;;;;;;;;;5008635;28;20022;-73
2023/07/19 09:48:22;;;;;;;5.82;2.08;;;;;;;;;;5008717;28;20053;-73
2023/07/19 09:50:52;;;;;;;5.25;1.77;;;;;;;;;;5009359;28;20433;-74
2023/07/19 09:53:20;;;;;;;4.47;1.85;;;;;;;;;;5009203;28;20495;-73
2023/07/19 09:55:48;;;;;;;6.30;2.22;;;;;;;;;;4991258;28;20511;-73
2023/07/19 09:58:16;;;;;;;8.30;2.72;;;;;;;;;;5008935;28;20131;-72
2023/07/19 10:00:42;;;;;;;4.70;1.60;;;;;;;;;;5008542;28;20088;-73
2023/07/19 10:03:08;;;;;;;5.30;2.67;;;;;;;;;;5009132;28;20037;-73
2023/07/19 10:05:34;;;;;;;7.82;2.83;;;;;;;;;;5008514;28;20033;-73
2023/07/19 10:08:05;;;;;;;5.57;2.00;;;;;;;;;;5008765;28;20034;-73
2023/07/19 10:10:38;;;;;;;4.18;1.73;;;;;;;;;;5008349;28;20488;-74
2023/07/19 10:13:06;;;;;;;7.20;2.38;;;;;;;;;;5008468;28;20022;-72
2023/07/19 10:15:32;;;;;;;3.83;1.85;;;;;;;;;;5008855;28;20365;-73
2023/07/19 10:17:58;;;;;;;3.85;1.60;;;;;;;;;;4990865;28;20034;-73
2023/07/19 10:20:33;;;;;;;7.40;1.98;;;;;;;;;;4990944;28;20057;-73
2023/07/19 10:23:06;;;;;;;3.53;1.50;;;;;;;;;;5008433;28;20022;-73
2023/07/19 10:25:39;;;;;;;6.70;2.25;;;;;;;;;;4992207;28;20116;-73
2023/07/19 10:28:07;;;;;;;9.05;2.45;;;;;;;;;;5012191;28;20030;-75
2023/07/19 10:30:52;;;;;;;6.00;2.20;;;;;;;;;;4995525;28;20065;-74
2023/07/19 10:33:20;;;;;;;6.97;2.15;;;;;;;;;;5012020;28;20718;-73
2023/07/19 10:35:47;;;;;;;4.97;1.77;;;;;;;;;;5012148;28;20551;-74
2023/07/19 10:38:22;;;;;;;3.63;1.63;;;;;;;;;;5011745;28;20054;-73
2023/07/19 10:40:55;;;;;;;5.35;1.90;;;;;;;;;;5011490;28;20599;-72
2023/07/19 10:43:25;;;;;;;3.58;1.80;;;;;;;;;;5012432;28;20355;-72
2023/07/19 10:45:54;;;;;;;5.93;1.73;;;;;;;;;;4992242;28;20045;-73
2023/07/19 10:48:28;;;;;;;6.78;2.08;;;;;;;;;;4992708;28;20030;-73
2023/07/19 10:50:58;;;;;;;5.25;2.72;;;;;;;;;;4992720;28;20050;-72
2023/07/19 10:53:24;;;;;;;5.18;1.83;;;;;;;;;;4992304;28;20027;-73
2023/07/19 10:55:57;;;;;;;4.50;1.50;;;;;;;;;;4992188;28;20061;-72
2023/07/19 10:58:27;;;;;;;4.55;1.83;;;;;;;;;;4992290;28;20026;-72
2023/07/19 11:00:56;;;;;;;4.10;1.63;;;;;;;;;;4992627;28;20019;-73
2023/07/19 11:03:24;;;;;;;;;;;;;;;;;;4993402;28;20023;-73
2023/07/19 11:05:51;;;;;;;5.50;2.38;;;;;;;;;;4992284;28;19906;-72
2023/07/19 11:08:23;;;;;;;6.50;1.95;;;;;;;;;;4992051;28;20125;-72
2023/07/19 11:10:50;;;;;;;11.25;3.00;;;;;;;;;;4992272;28;20392;-71
2023/07/19 11:13:17;;;;;;;5.93;1.92;;;;;;;;;;4992576;28;20019;-73
2023/07/19 11:15:48;;;;;;;4.45;1.65;;;;;;;;;;4992220;28;20037;-72
2023/07/19 11:18:23;;;;;;;6.00;2.60;;;;;;;;;;4974151;28;20428;-72
2023/07/19 11:20:49;;;;;;;5.88;2.05;;;;;;;;;;4992113;28;20061;-72
2023/07/19 11:23:15;;;;;;;5.65;2.60;;;;;;;;;;4992580;28;20443;-73
2023/07/19 11:25:41;;;;;;;7.68;2.50;;;;;;;;;;4992361;28;20097;-72
2023/07/19 11:28:07;;;;;;;6.10;2.72;;;;;;;;;;4990643;28;20120;-72
2023/07/19 11:30:40;;;;;;;5.38;1.85;;;;;;;;;;4974027;28;20084;-73
2023/07/19 11:33:12;;;;;;;5.70;1.95;;;;;;;;;;4992223;28;20441;-74
2023/07/19 11:35:38;;;;;;;4.03;1.52;;;;;;;;;;4991681;28;20116;-73
2023/07/19 11:38:04;;;;;;;10.00;3.00;;;;;;;;;;4991450;28;20027;-73
2023/07/19 11:40:30;;;;;;;4.70;1.75;;;;;;;;;;4974438;28;20039;-72
2023/07/19 11:42:57;;;;;;;8.32;3.15;;;;;;;;;;4974627;28;20397;-74
2023/07/19 11:45:28;;;;;;;5.00;1.98;;;;;;;;;;4992162;28;20054;-73
2023/07/19 11:47:59;;;;;;;5.10;2.20;;;;;;;;;;4991072;28;20033;-73
2023/07/19 11:50:25;;;;;;;5.32;2.50;;;;;;;;;;4992229;28;20066;-72
2023/07/19 11:52:59;;;;;;;7.63;2.72;;;;;;;;;;4991463;28;20527;-73
2023/07/19 11:55:25;;;;;;;7.60;3.00;;;;;;;;;;4991288;28;20448;-72
2023/07/19 11:57:53;;;;;;;6.28;2.70;;;;;;;;;;4991406;28;20034;-73
2023/07/19 12:00:20;;;;;;;6.32;2.05;;;;;;;;;;4973420;28;20469;-72
2023/07/19 12:02:46;;;;;;;6.13;2.67;;;;;;;;;;4991547;28;20041;-72
2023/07/19 12:05:13;;;;;;;8.15;3.03;;;;;;;;;;4957963;28;20031;-73
2023/07/19 12:07:42;;;;;;;7.13;2.47;;;;;;;;;;4991461;28;20030;-73
2023/07/19 12:10:09;;;;;;;8.30;2.45;;;;;;;;;;4991460;28;20113;-72
2023/07/19 12:12:37;;;;;;;7.55;2.80;;;;;;;;;;4991080;28;20109;-74
2023/07/19 12:15:07;;;;;;;12.75;3.50;;;;;;;;;;4991267;28;20154;-76
2023/07/19 12:17:34;;;;;;;9.13;3.47;;;;;;;;;;4990308;28;20042;-74
2023/07/19 12:20:00;;;;;;;10.52;3.35;;;;;;;;;;4991110;28;20101;-73
2023/07/19 12:22:30;;;;;;;7.95;2.97;;;;;;;;;;4991080;28;20038;-74
2023/07/19 12:24:58;;;;;;;8.32;3.78;;;;;;;;;;4991076;28;20034;-74
2023/07/19 12:27:24;;;;;;;7.45;3.22;;;;;;;;;;4990128;28;20055;-73
2023/07/19 12:29:52;;;;;;;7.32;2.92;;;;;;;;;;4991132;28;20065;-72
2023/07/19 12:32:18;;;;;;;8.23;3.17;;;;;;;;;;4990341;28;20430;-74
2023/07/19 12:34:45;;;;;;;7.35;3.15;;;;;;;;;;4990815;28;20095;-74
2023/07/19 12:37:12;;;;;;;7.85;4.10;;;;;;;;;;4991258;28;20034;-72
2023/07/19 12:39:38;;;;;;;15.00;4.53;;;;;;;;;;4990705;28;20042;-73
2023/07/19 12:42:04;;;;;;;8.13;3.88;;;;;;;;;;4990850;28;20030;-73
2023/07/19 12:44:31;;;;;;;5.95;2.22;;;;;;;;;;4999690;28;20049;-74
2023/07/19 12:46:57;;;;;;;4.32;1.95;;;;;;;;;;5010740;28;20568;-75
2023/07/19 12:49:24;;;;;;;5.32;2.75;;;;;;;;;;5010497;28;20128;-73
2023/07/19 12:51:50;;;;;;;4.18;1.60;;;;;;;;;;5009832;28;20387;-74
2023/07/19 12:54:16;;;;;;;5.30;2.58;;;;;;;;;;5010927;28;20030;-72
2023/07/19 12:56:42;;;;;;;3.90;1.40;;;;;;;;;;5010759;28;20030;-73
2023/07/19 12:59:12;;;;;;;3.38;1.20;;;;;;;;;;4993000;28;20077;-74
2023/07/19 13:01:38;;;;;;;3.87;1.90;;;;;;;;;;5010268;28;20021;-74
2023/07/19 13:04:05;;;;;;;4.03;1.75;;;;;;;;;;5011192;28;20105;-74
2023/07/19 13:06:33;;;;;;;7.07;2.63;;;;;;;;;;4993075;28;20471;-74
2023/07/19 13:08:59;;;;;;;4.88;1.40;;;;;;;;;;5010824;28;20026;-73
2023/07/19 13:11:25;;;;;;;5.70;1.83;;;;;;;;;;5009939;28;20141;-74
2023/07/19 13:13:51;;;;;;;3.22;1.27;;;;;;;;;;5009963;28;20216;-75
2023/07/19 13:16:18;;;;;;;5.50;1.42;;;;;;;;;;5010202;28;20030;-73
2023/07/19 13:18:44;;;;;;;5.18;2.47;;;;;;;;;;5009612;28;20647;-74
2023/07/19 13:21:10;;;;;;;3.20;1.48;;;;;;;;;;4992565;28;20113;-74
2023/07/19 13:23:37;;;;;;;4.82;1.45;;;;;;;;;;4991666;28;20542;-74
2023/07/19 13:26:03;;;;;;;7.47;2.83;;;;;;;;;;5010384;28;20034;-72
2023/07/19 13:28:30;;;;;;;4.60;1.35;;;;;;;;;;5009232;28;20500;-72
2023/07/19 13:30:56;;;;;;;3.95;1.95;;;;;;;;;;5009723;28;20022;-73
2023/07/19 13:33:25;;;;;;;7.35;2.30;;;;;;;;;;5009589;28;20021;-73
2023/07/19 13:35:52;;;;;;;4.38;1.50;;;;;;;;;;5009852;28;20064;-73
2023/07/19 13:38:18;;;;;;;5.07;1.90;;;;;;;;;;4991923;28;20053;-73
2023/07/19 13:40:45;;;;;;;4.18;1.63;;;;;;;;;;4991811;28;20038;-73
2023/07/19 13:43:11;;;;;;;5.22;1.75;;;;;;;;;;5010112;28;20050;-76
2023/07/19 13:45:39;;;;;;;4.25;1.40;;;;;;;;;;5010375;28;20057;-76
2023/07/19 13:48:06;;;;;;;4.10;1.77;;;;;;;;;;4991204;28;20033;-72
2023/07/19 13:50:32;;;;;;;6.80;3.00;;;;;;;;;;5010253;28;20025;-72
2023/07/19 13:53:04;;;;;;;3.75;1.50;;;;;;;;;;5009772;28;20053;-72
2023/07/19 13:55:31;;;;;;;3.55;1.70;;;;;;;;;;5009070;28;20117;-72
2023/07/19 13:57:57;;;;;;;8.70;4.05;;;;;;;;;;5009987;28;20384;-73
2023/07/19 14:00:24;;;;;;;9.75;4.13;;;;;;;;;;5010262;28;20144;-73
2023/07/19 14:02:50;;;;;;;8.30;3.90;;;;;;;;;;5009544;28;20034;-74
2023/07/19 14:05:17;;;;;;;7.28;3.65;;;;;;;;;;5009561;28;20032;-75
2023/07/19 14:07:43;;;;;;;8.07;4.18;;;;;;;;;;5009480;28;20127;-74
2023/07/19 14:10:09;;;;;;;7.72;3.80;;;;;;;;;;5009599;28;20364;-74
2023/07/19 14:12:37;;;;;;;11.65;4.45;;;;;;;;;;5009315;28;20030;-75
2023/07/19 14:15:07;;;;;;;11.27;5.85;;;;;;;;;;5009019;28;20026;-76
2023/07/19 14:17:34;;;;;;;10.57;5.45;;;;;;;;;;5009687;28;20025;-76
2023/07/19 14:20:00;;;;;;;10.05;4.72;;;;;;;;;;5009404;28;20056;-74
2023/07/19 14:22:26;;;;;;;9.32;4.53;;;;;;;;;;5008897;28;20026;-74
2023/07/19 14:24:55;;;;;;;8.18;3.63;;;;;;;;;;5009423;28;20297;-74
2023/07/19 14:27:21;;;;;;;8.85;3.63;;;;;;;;;;5009166;28;20030;-75
2023/07/19 14:29:47;;;;;;;8.38;3.72;;;;;;;;;;5008953;28;20022;-72
2023/07/19 14:32:15;;;;;;;3.63;1.35;;;;;;;;;;4991875;28;20399;-72
2023/07/19 14:34:41;;;;;;;4.82;1.80;;;;;;;;;;5009547;28;20091;-72
2023/07/19 14:37:08;;;;;;;7.80;2.25;;;;;;;;;;5009255;28;20080;-74
2023/07/19 14:39:34;;;;;;;5.50;1.88;;;;;;;;;;4989712;28;20222;-72
2023/07/19 14:42:00;;;;;;;3.63;1.23;;;;;;;;;;5009129;28;20049;-73